GCLP Información de aeropuertos

Información de pistas
Pista 03L Longitud 10171 ft Ancho 148 ft
Elevación 78 ft Umbral 0 ft Rumbo 22
Pista 21R Longitud 10171 ft Ancho 148 ft
Elevación 33 ft Umbral 0 ft Rumbo 202
Pista 03R Longitud 10171 ft Ancho 148 ft
Elevación 69 ft Umbral 0 ft Rumbo 22
Pista 21L Longitud 10171 ft Ancho 148 ft
Elevación 27 ft Umbral 0 ft Rumbo 202
Frecuencias
Tipo APP Nombre APP Frequencia 120.9 MHZ
Tipo ATIS Nombre ATIS Frequencia 118.6 MHZ
Tipo GND Nombre GND Frequencia 121.7 MHZ
Tipo TWR Nombre TWR Frequencia 118.3 MHZ
Radioayudas
Tipo VOR-DME Nombre Gran Canaria Frequencia 112900 KHZ
Tipo VOR-DME Nombre Gran Canaria Frequencia 115000 KHZ
Tipo TACAN Nombre Gran Canaria Frequencia 115600 KHZ
Tipo NDB Nombre Gran Canaria Frequencia 365 KHZ
Información meteorológica y NOTAM
ADDS - METARS form results

(1815 UTC 19 January 2021)
Data provider http://aviationweather.gov/metar/data/
 
METAR text: GCLP 191800Z VRB02KT 9999 SCT025 18/13 Q1024 NOSIG
Conditions at: GCLP (LAS PALMAS/GANDO, ES) observed 1800 UTC 19 January 2021
Temperature: 18.0°C (64°F)
Dewpoint: 13.0°C (55°F) [RH = 73%]
Pressure (altimeter): 30.24 inches Hg (1024.0 mb)
Winds: variable direction winds at 2 MPH (2 knots; 1.0 m/s)
Visibility: 6 or more miles (10+ km)
Ceiling: at least 12,000 feet AGL
Clouds: scattered clouds at 2500 feet AGL
Weather: no significant weather observed at this time

METAR text: GCLP 191730Z 06004KT 010V080 9999 BKN025 18/13 Q1024 NOSIG
Conditions at: GCLP (LAS PALMAS/GANDO, ES) observed 1730 UTC 19 January 2021
Temperature: 18.0°C (64°F)
Dewpoint: 13.0°C (55°F) [RH = 73%]
Pressure (altimeter): 30.24 inches Hg (1024.0 mb)
Winds: from the ENE (60 degrees) at 5 MPH (4 knots; 2.1 m/s)
Visibility: 6 or more miles (10+ km)
Ceiling: 2500 feet AGL
Clouds: broken clouds at 2500 feet AGL
Weather: no significant weather observed at this time

Forecast for: GCLP (LAS PALMAS/GANDO, ES)
Text: TAF GCLP 191400Z 1915/2015 13010KT 9999 FEW025 TX20/2014Z TN15/2007Z
Forecast period: 1500 to 1700 UTC 19 January 2021
Forecast type: FROM: standard forecast or significant change
Winds: from the SE (130 degrees) at 12 MPH (10 knots; 5.1 m/s)
Visibility: 6 or more miles (10+ km)
Ceiling: at least 12,000 feet AGL
Clouds: few clouds at 2500 feet AGL
Weather: no significant weather forecast for this period
Text: BECMG 1917/1919 34004KT
Forecast period: 1700 UTC 19 January 2021 to 1500 UTC 20 January 2021
Forecast type: BECOMING: Conditions expected to become as follows by 1900 UTC 19 January 2021
Winds: from the NNW (340 degrees) at 5 MPH (4 knots; 2.1 m/s)
Visibility: 6 or more miles (10+ km)
Ceiling: at least 12,000 feet AGL
Clouds: few clouds at 2500 feet AGL
Weather: no significant weather forecast for this period